createdAt,value
2023-02-24T00:00:07.623Z,185.97
2023-02-24T00:02:39.760Z,189.73
2023-02-24T00:05:28.486Z,178.83
2023-02-24T00:10:44.401Z,173.43
2023-02-24T00:13:13.649Z,183.37
2023-02-24T00:15:42.907Z,171.37
2023-02-24T00:18:13.533Z,167.10
2023-02-24T00:20:42.727Z,164.37
2023-02-24T00:23:11.855Z,166.17
2023-02-24T00:25:41.013Z,156.83
2023-02-24T00:28:10.455Z,163.83
2023-02-24T00:30:39.527Z,166.60
2023-02-24T00:33:08.877Z,165.93
2023-02-24T00:35:39.655Z,159.07
2023-02-24T00:38:08.888Z,167.57
2023-02-24T00:40:38.705Z,159.10
2023-02-24T00:43:09.203Z,160.77
2023-02-24T00:45:39.457Z,163.80
2023-02-24T00:48:10.920Z,155.93
2023-02-24T00:50:41.618Z,153.70
2023-02-24T00:53:11.668Z,156.40
2023-02-24T00:55:40.793Z,152.77
2023-02-24T00:58:10.040Z,155.50
2023-02-24T01:00:39.397Z,156.43
2023-02-24T01:03:08.691Z,160.37
2023-02-24T01:08:27.075Z,149.63
2023-02-24T01:11:20.013Z,152.30
2023-02-24T01:13:49.847Z,144.53
2023-02-24T01:16:20.039Z,147.97
2023-02-24T01:18:49.628Z,149.60
2023-02-24T01:21:20.036Z,139.07
2023-02-24T01:23:51.392Z,144.40
2023-02-24T01:26:21.435Z,145.77
2023-02-24T01:28:50.817Z,134.93
2023-02-24T01:31:21.181Z,140.93
2023-02-24T01:33:50.633Z,144.67
2023-02-24T01:36:21.331Z,142.27
2023-02-24T01:38:51.997Z,145.87
2023-02-24T01:41:22.353Z,142.43
2023-02-24T01:43:59.037Z,140.47
2023-02-24T01:46:33.346Z,135.23
2023-02-24T01:49:08.582Z,139.43
2023-02-24T01:51:40.347Z,133.53
2023-02-24T01:54:11.488Z,135.03
2023-02-24T01:56:41.469Z,134.67
2023-02-24T01:59:11.799Z,132.70
2023-02-24T02:01:46.202Z,137.17
2023-02-24T02:04:18.615Z,129.67
2023-02-24T02:06:48.963Z,141.37
2023-02-24T02:09:19.744Z,140.37
2023-02-24T02:12:07.704Z,142.70
2023-02-24T02:14:41.144Z,142.97
2023-02-24T02:17:15.792Z,138.33
2023-02-24T02:20:16.970Z,132.73
2023-02-24T02:23:07.696Z,134.90
2023-02-24T02:25:47.918Z,131.33
2023-02-24T02:32:04.003Z,133.10
2023-02-24T02:37:49.065Z,138.40
2023-02-24T02:43:16.100Z,145.57
2023-02-24T02:45:48.546Z,140.17
2023-02-24T02:51:11.549Z,132.53
2023-02-24T02:53:43.504Z,142.50
2023-02-24T02:59:05.553Z,141.60
2023-02-24T03:01:37.550Z,143.37
2023-02-24T03:04:25.838Z,138.10
2023-02-24T03:06:59.248Z,140.97
2023-02-24T03:09:30.931Z,140.00
2023-02-24T03:12:03.139Z,150.10
2023-02-24T03:17:24.046Z,150.43
2023-02-24T03:20:00.654Z,150.10
2023-02-24T03:22:35.232Z,142.47
2023-02-24T03:25:06.312Z,147.53
2023-02-24T03:27:42.755Z,152.17
2023-02-24T03:30:19.900Z,138.00
2023-02-24T03:33:09.177Z,151.43
2023-02-24T03:35:40.231Z,134.23
2023-02-24T03:38:11.615Z,145.60
2023-02-24T03:40:43.725Z,149.80
2023-02-24T03:43:21.825Z,141.20
2023-02-24T03:45:51.451Z,154.50
2023-02-24T03:48:38.915Z,144.23
2023-02-24T03:54:05.875Z,145.47
2023-02-24T03:56:46.220Z,142.13
2023-02-24T03:59:44.788Z,146.63
2023-02-24T04:02:21.955Z,143.97
2023-02-24T04:04:57.095Z,139.97
2023-02-24T04:07:41.677Z,142.03
2023-02-24T04:10:20.008Z,135.70
2023-02-24T04:12:56.478Z,140.77
2023-02-24T04:21:11.681Z,135.77
2023-02-24T04:23:46.273Z,137.40
2023-02-24T04:26:19.380Z,134.10
2023-02-24T04:28:50.316Z,127.03
2023-02-24T04:31:22.293Z,136.13
2023-02-24T04:33:53.639Z,133.33
2023-02-24T04:36:34.354Z,130.27
2023-02-24T04:39:05.269Z,125.37
2023-02-24T04:41:36.174Z,120.73
2023-02-24T04:44:05.174Z,124.83
2023-02-24T04:46:34.290Z,129.67
2023-02-24T04:49:03.329Z,131.77
2023-02-24T04:51:34.244Z,130.20
2023-02-24T04:54:04.027Z,124.83
2023-02-24T04:56:34.413Z,131.73
2023-02-24T04:59:03.596Z,121.03
2023-02-24T05:01:32.932Z,123.20
2023-02-24T05:04:01.988Z,127.03
2023-02-24T05:06:31.454Z,125.73
2023-02-24T05:09:01.804Z,124.83
2023-02-24T05:11:35.221Z,123.07
2023-02-24T05:14:05.770Z,123.03
2023-02-24T05:16:34.877Z,126.03
2023-02-24T05:19:21.065Z,122.13
2023-02-24T05:21:50.479Z,124.77
2023-02-24T05:24:19.452Z,133.90
2023-02-24T05:26:48.500Z,130.47
2023-02-24T05:29:38.990Z,121.93
2023-02-24T05:32:08.773Z,126.27
2023-02-24T05:37:25.988Z,122.50
2023-02-24T05:39:57.771Z,125.43
2023-02-24T05:42:27.986Z,122.17
2023-02-24T05:44:58.916Z,129.60
2023-02-24T05:47:28.385Z,120.20
2023-02-24T05:49:59.450Z,131.63
2023-02-24T05:52:28.584Z,133.77
2023-02-24T05:54:57.504Z,121.17
2023-02-24T05:57:33.118Z,122.03
2023-02-24T06:00:12.117Z,127.07
2023-02-24T06:02:49.632Z,127.07
2023-02-24T06:05:26.927Z,127.43
2023-02-24T06:08:06.473Z,125.87
2023-02-24T06:13:22.594Z,135.43
2023-02-24T06:16:13.388Z,117.47
2023-02-24T06:18:42.673Z,129.70
2023-02-24T06:21:12.899Z,127.40
2023-02-24T06:23:42.139Z,129.97
2023-02-24T06:26:13.306Z,132.47
2023-02-24T06:28:44.181Z,118.00
2023-02-24T06:31:15.368Z,133.77
2023-02-24T06:33:44.449Z,137.40
2023-02-24T06:36:14.563Z,142.73
2023-02-24T06:38:44.041Z,137.20
2023-02-24T06:41:13.144Z,131.27
2023-02-24T06:43:44.835Z,126.00
2023-02-24T06:46:17.199Z,120.27
2023-02-24T06:48:48.325Z,124.20
2023-02-24T06:54:06.373Z,118.63
2023-02-24T06:56:39.046Z,116.70
2023-02-24T06:59:12.155Z,115.67
2023-02-24T07:01:47.364Z,113.60
2023-02-24T07:07:07.560Z,114.10
2023-02-24T07:09:54.869Z,113.80
2023-02-24T07:12:24.610Z,113.03
2023-02-24T07:14:54.135Z,110.20
2023-02-24T07:17:24.864Z,109.93
2023-02-24T07:19:55.896Z,111.27
2023-02-24T07:22:25.577Z,114.73
2023-02-24T07:25:00.753Z,105.63
2023-02-24T07:27:30.310Z,116.47
2023-02-24T07:29:59.728Z,117.07
2023-02-24T07:32:48.975Z,116.60
2023-02-24T07:35:18.130Z,121.57
2023-02-24T07:37:48.854Z,126.57
2023-02-24T07:40:36.748Z,123.27
2023-02-24T07:43:06.617Z,115.57
2023-02-24T07:45:37.242Z,113.10
2023-02-24T07:48:11.314Z,110.00
2023-02-24T07:50:43.984Z,82.33
2023-02-24T07:53:13.150Z,84.50
2023-02-24T07:55:42.113Z,118.73
2023-02-24T07:58:11.747Z,119.93
2023-02-24T08:03:47.548Z,115.90
2023-02-24T08:06:20.992Z,115.33
2023-02-24T08:09:06.488Z,116.70
2023-02-24T08:11:35.963Z,111.07
2023-02-24T08:14:22.524Z,114.40
2023-02-24T08:16:53.607Z,108.10
2023-02-24T08:19:24.235Z,120.63
2023-02-24T08:21:54.924Z,113.70
2023-02-24T08:24:30.183Z,110.47
2023-02-24T08:27:16.548Z,120.17
2023-02-24T08:29:58.454Z,114.17
2023-02-24T08:32:34.073Z,118.73
2023-02-24T08:35:23.583Z,115.80
2023-02-24T08:37:54.125Z,117.70
2023-02-24T08:40:50.407Z,118.00
2023-02-24T08:46:19.596Z,115.00
2023-02-24T08:48:50.921Z,117.63
2023-02-24T08:51:23.969Z,120.87
2023-02-24T08:53:55.197Z,114.13
2023-02-24T08:59:47.825Z,107.57
2023-02-24T09:02:24.519Z,115.03
2023-02-24T09:04:54.895Z,117.23
2023-02-24T09:07:28.061Z,120.73
2023-02-24T09:09:57.716Z,113.13
2023-02-24T09:12:29.396Z,119.00
2023-02-24T09:15:01.440Z,112.17
2023-02-24T09:17:50.494Z,121.17
2023-02-24T09:20:39.222Z,118.80
2023-02-24T09:23:09.943Z,117.57
2023-02-24T09:25:44.970Z,116.43
2023-02-24T09:28:17.608Z,118.93
2023-02-24T09:30:53.788Z,116.47
2023-02-24T09:33:24.542Z,114.30
2023-02-24T09:36:13.657Z,124.27
2023-02-24T09:39:04.418Z,120.50
2023-02-24T09:41:54.011Z,121.83
2023-02-24T09:44:26.389Z,122.80
2023-02-24T09:46:58.257Z,119.63
2023-02-24T09:49:40.257Z,114.83
2023-02-24T09:52:17.258Z,124.03
2023-02-24T09:55:08.503Z,115.77
2023-02-24T09:58:04.887Z,123.67
2023-02-24T10:00:44.315Z,124.57
2023-02-24T10:03:20.953Z,119.50
2023-02-24T10:05:59.349Z,122.80
2023-02-24T10:08:34.999Z,115.83
2023-02-24T10:11:09.092Z,127.10
2023-02-24T10:14:03.491Z,124.17
2023-02-24T10:16:41.826Z,127.03
2023-02-24T10:19:17.003Z,128.63
2023-02-24T10:22:25.235Z,125.97
2023-02-24T10:25:01.754Z,123.00
2023-02-24T10:27:35.396Z,127.63
2023-02-24T10:30:11.527Z,140.20
2023-02-24T10:32:47.392Z,132.73
2023-02-24T10:35:18.018Z,125.37
2023-02-24T10:38:04.905Z,135.30
2023-02-24T10:40:45.214Z,125.87
2023-02-24T10:43:34.905Z,130.63
2023-02-24T10:46:07.777Z,130.50
2023-02-24T10:48:42.486Z,136.43
2023-02-24T10:51:20.376Z,129.87
2023-02-24T10:54:10.402Z,139.63
2023-02-24T10:56:45.054Z,140.57
2023-02-24T10:59:48.657Z,141.80
2023-02-24T11:02:30.019Z,144.30
2023-02-24T11:05:18.389Z,137.43
2023-02-24T11:13:57.155Z,138.83
2023-02-24T11:19:33.059Z,145.43
2023-02-24T11:22:02.800Z,145.80
2023-02-24T11:24:32.028Z,144.00
2023-02-24T11:27:02.923Z,153.03
2023-02-24T11:29:57.143Z,141.50
2023-02-24T11:32:44.049Z,146.53
2023-02-24T11:35:19.355Z,149.47
2023-02-24T11:37:51.500Z,155.30
2023-02-24T11:40:24.049Z,154.90
2023-02-24T11:42:56.388Z,155.67
2023-02-24T11:45:33.762Z,152.63
2023-02-24T11:48:25.508Z,149.07
2023-02-24T11:50:57.785Z,150.30
2023-02-24T11:53:29.654Z,153.47
2023-02-24T11:56:01.946Z,150.17
2023-02-24T12:04:19.961Z,153.10
2023-02-24T12:06:57.434Z,152.27
2023-02-24T12:09:46.106Z,152.37
2023-02-24T12:12:39.154Z,167.00
2023-02-24T12:15:17.366Z,154.43
2023-02-24T12:17:58.281Z,150.47
2023-02-24T12:23:24.779Z,160.67
2023-02-24T12:26:09.333Z,144.97
2023-02-24T12:28:49.016Z,152.70
2023-02-24T12:31:26.126Z,152.83
2023-02-24T12:37:16.912Z,154.10
2023-02-24T12:39:58.678Z,152.60
2023-02-24T12:42:37.136Z,157.77
2023-02-24T12:45:16.748Z,152.53
2023-02-24T12:47:52.224Z,155.63
2023-02-24T12:53:24.971Z,153.83
2023-02-24T12:56:00.435Z,161.90
2023-02-24T12:58:34.376Z,161.30
2023-02-24T13:01:13.255Z,146.93
2023-02-24T13:04:06.419Z,157.13
2023-02-24T13:07:16.247Z,151.03
2023-02-24T13:09:49.732Z,159.00
2023-02-24T13:12:28.566Z,145.73
2023-02-24T13:14:57.906Z,150.07
2023-02-24T13:17:45.529Z,155.07
2023-02-24T13:23:32.254Z,146.63
2023-02-24T13:26:03.021Z,146.20
2023-02-24T13:28:33.648Z,159.90
2023-02-24T13:31:04.468Z,146.60
2023-02-24T13:33:36.402Z,155.13
2023-02-24T13:36:10.867Z,152.93
2023-02-24T13:38:41.983Z,152.90
2023-02-24T13:41:36.853Z,153.23
2023-02-24T13:44:26.786Z,149.60
2023-02-24T13:47:27.750Z,151.57
2023-02-24T13:50:03.945Z,157.97
2023-02-24T13:55:31.936Z,143.37
2023-02-24T13:58:10.983Z,154.47
2023-02-24T14:00:48.821Z,146.20
2023-02-24T14:03:20.863Z,145.17
2023-02-24T14:05:50.695Z,146.50
2023-02-24T14:08:23.909Z,153.83
2023-02-24T14:10:56.765Z,158.93
2023-02-24T14:13:30.072Z,158.33
2023-02-24T14:16:02.150Z,161.53
2023-02-24T14:18:32.319Z,153.73
2023-02-24T14:24:12.290Z,155.27
2023-02-24T14:27:03.260Z,153.43
2023-02-24T14:29:44.267Z,147.53
2023-02-24T14:32:21.628Z,149.27
2023-02-24T14:34:50.980Z,149.60
2023-02-24T14:37:23.980Z,164.63
2023-02-24T14:39:54.451Z,165.60
2023-02-24T14:42:23.898Z,154.60
2023-02-24T14:44:55.263Z,170.17
2023-02-24T14:47:25.387Z,166.63
2023-02-24T14:49:55.496Z,153.83
2023-02-24T14:52:28.916Z,163.33
2023-02-24T14:54:59.732Z,151.27
2023-02-24T14:57:31.005Z,155.40
2023-02-24T15:00:10.940Z,150.73
2023-02-24T15:02:42.290Z,151.43
2023-02-24T15:05:12.902Z,152.13
2023-02-24T15:07:42.446Z,150.17
2023-02-24T15:10:21.371Z,161.60
2023-02-24T15:12:52.295Z,151.90
2023-02-24T15:15:24.381Z,156.83
2023-02-24T15:18:13.721Z,162.40
2023-02-24T15:20:43.374Z,160.60
2023-02-24T15:23:44.497Z,155.47
2023-02-24T15:26:26.571Z,144.83
2023-02-24T15:29:00.208Z,145.17
2023-02-24T15:31:31.580Z,146.13
2023-02-24T15:34:02.268Z,149.50
2023-02-24T15:36:33.896Z,150.43
2023-02-24T15:39:04.333Z,152.37
2023-02-24T15:41:41.097Z,156.90
2023-02-24T15:44:24.114Z,162.57
2023-02-24T15:46:55.831Z,159.90
2023-02-24T15:49:25.222Z,154.80
2023-02-24T15:51:54.652Z,152.37
2023-02-24T15:54:30.332Z,164.43
2023-02-24T15:57:00.016Z,157.63
2023-02-24T15:59:29.757Z,150.87
2023-02-24T16:04:46.755Z,159.17
2023-02-24T16:07:19.160Z,156.67
2023-02-24T16:09:50.530Z,162.77
2023-02-24T16:12:47.993Z,158.23
2023-02-24T16:15:21.981Z,159.03
2023-02-24T16:17:53.397Z,161.37
2023-02-24T16:20:40.862Z,156.97
2023-02-24T16:23:10.038Z,162.47
2023-02-24T16:25:40.499Z,155.50
2023-02-24T16:28:09.594Z,159.63
2023-02-24T16:30:38.931Z,160.70
2023-02-24T16:33:13.636Z,169.17
2023-02-24T16:35:44.564Z,167.20
2023-02-24T16:38:15.449Z,158.73
2023-02-24T16:40:45.893Z,156.67
2023-02-24T16:46:21.495Z,162.00
2023-02-24T16:48:53.520Z,165.50
2023-02-24T16:54:10.471Z,163.13
2023-02-24T16:56:39.706Z,153.77
2023-02-24T16:59:09.068Z,169.70
2023-02-24T17:04:26.329Z,161.03
2023-02-24T17:06:55.268Z,149.23
2023-02-24T17:09:24.844Z,155.67
2023-02-24T17:11:54.002Z,146.27
2023-02-24T17:14:23.127Z,152.33
2023-02-24T17:16:52.313Z,156.17
2023-02-24T17:19:21.586Z,151.27
2023-02-24T17:21:52.083Z,157.13
2023-02-24T17:24:22.112Z,154.17
2023-02-24T17:29:38.084Z,152.27
2023-02-24T17:32:07.452Z,165.07
2023-02-24T17:34:37.323Z,166.07
2023-02-24T17:37:07.984Z,152.10
2023-02-24T17:39:37.171Z,160.70
2023-02-24T17:42:06.217Z,151.87
2023-02-24T17:44:53.883Z,151.23
2023-02-24T17:47:23.059Z,149.47
2023-02-24T17:49:52.006Z,160.87
2023-02-24T17:52:22.696Z,163.73
2023-02-24T17:54:51.808Z,173.47
2023-02-24T17:57:38.013Z,168.90
2023-02-24T18:00:08.223Z,160.17
2023-02-24T18:02:43.195Z,158.90
2023-02-24T18:05:12.365Z,166.57
2023-02-24T18:07:45.139Z,158.40
2023-02-24T18:10:14.286Z,164.97
2023-02-24T18:12:43.402Z,170.63
2023-02-24T18:15:13.234Z,164.90
2023-02-24T18:17:42.278Z,152.37
2023-02-24T18:20:12.421Z,151.50
2023-02-24T18:22:43.091Z,169.80
2023-02-24T18:25:12.477Z,152.97
2023-02-24T18:30:28.072Z,157.17
2023-02-24T18:32:57.311Z,154.40
2023-02-24T18:35:27.453Z,149.10
2023-02-24T18:37:58.285Z,147.50
2023-02-24T18:40:45.697Z,161.97
2023-02-24T18:43:14.973Z,147.53
2023-02-24T18:45:44.050Z,158.37
2023-02-24T18:48:13.107Z,150.90
2023-02-24T18:50:59.947Z,148.40
2023-02-24T18:53:52.173Z,156.70
2023-02-24T18:56:23.375Z,157.27
2023-02-24T18:58:53.258Z,151.57
2023-02-24T19:01:23.509Z,158.97
2023-02-24T19:04:10.942Z,154.13
2023-02-24T19:06:41.826Z,150.60
2023-02-24T19:09:13.245Z,158.77
2023-02-24T19:11:42.858Z,157.50
2023-02-24T19:14:14.107Z,153.67
2023-02-24T19:16:43.533Z,164.77
2023-02-24T19:19:14.179Z,162.30
2023-02-24T19:21:45.709Z,164.00
2023-02-24T19:24:16.688Z,155.53
2023-02-24T19:26:47.731Z,155.77
2023-02-24T19:29:17.413Z,144.90
2023-02-24T19:31:46.810Z,146.27
2023-02-24T19:34:16.647Z,141.20
2023-02-24T19:36:45.822Z,141.37
2023-02-24T19:39:18.102Z,136.93
2023-02-24T19:41:49.549Z,135.90
2023-02-24T19:44:18.873Z,122.13
2023-02-24T19:46:48.505Z,123.50
2023-02-24T19:49:17.673Z,119.03
2023-02-24T19:52:04.141Z,118.33
2023-02-24T19:54:34.679Z,161.93
2023-02-24T19:57:03.788Z,161.57
2023-02-24T20:02:19.138Z,148.30
2023-02-24T20:04:48.274Z,149.33
2023-02-24T20:07:17.378Z,142.07
2023-02-24T20:09:48.183Z,121.03
2023-02-24T20:12:17.509Z,100.90
2023-02-24T20:14:47.684Z,93.57
2023-02-24T20:17:35.735Z,85.07
2023-02-24T20:20:05.148Z,82.00
2023-02-24T20:22:34.139Z,84.30
2023-02-24T20:25:23.320Z,72.97
2023-02-24T20:27:52.423Z,77.07
2023-02-24T20:30:21.470Z,76.03
2023-02-24T20:32:50.547Z,77.40
2023-02-24T20:35:21.310Z,76.50
2023-02-24T20:38:07.772Z,75.57
2023-02-24T20:40:38.473Z,76.67
2023-02-24T20:43:09.248Z,72.53
2023-02-24T20:45:41.093Z,81.53
2023-02-24T20:50:56.981Z,86.70
2023-02-24T20:53:26.105Z,104.97
2023-02-24T20:56:02.882Z,114.73
2023-02-24T20:58:32.222Z,104.73
2023-02-24T21:01:18.545Z,115.70
2023-02-24T21:03:48.047Z,127.50
2023-02-24T21:06:18.871Z,127.63
2023-02-24T21:08:48.049Z,112.57
2023-02-24T21:11:19.094Z,113.97
2023-02-24T21:13:49.363Z,100.93
2023-02-24T21:16:19.924Z,102.63
2023-02-24T21:18:50.308Z,95.80
2023-02-24T21:21:36.811Z,87.77
2023-02-24T21:24:06.571Z,86.67
2023-02-24T21:26:37.066Z,77.53
2023-02-24T21:29:06.300Z,78.97
2023-02-24T21:31:35.587Z,78.40
2023-02-24T21:34:04.706Z,77.30
2023-02-24T21:36:33.816Z,77.00
2023-02-24T21:39:03.139Z,83.80
2023-02-24T21:41:32.248Z,80.37
2023-02-24T21:44:02.755Z,84.90
2023-02-24T21:46:31.965Z,77.63
2023-02-24T21:49:01.185Z,78.47
2023-02-24T21:51:30.422Z,79.10
2023-02-24T21:54:00.995Z,73.67
2023-02-24T21:56:48.166Z,73.63
2023-02-24T21:59:18.692Z,74.73
2023-02-24T22:01:48.301Z,77.37
2023-02-24T22:04:19.487Z,82.67
2023-02-24T22:07:08.367Z,85.70
2023-02-24T22:09:37.639Z,78.10
2023-02-24T22:12:07.349Z,95.63
2023-02-24T22:14:37.900Z,89.43
2023-02-24T22:17:06.980Z,86.23
2023-02-24T22:19:36.015Z,87.63
2023-02-24T22:22:05.092Z,84.33
2023-02-24T22:27:20.654Z,79.60
2023-02-24T22:29:52.148Z,79.50
2023-02-24T22:32:21.285Z,78.97
2023-02-24T22:34:50.759Z,82.37
2023-02-24T22:37:38.837Z,73.30
2023-02-24T22:40:09.062Z,74.77
2023-02-24T22:42:38.050Z,79.27
2023-02-24T22:45:10.275Z,75.53
2023-02-24T22:47:39.398Z,84.90
2023-02-24T22:50:09.141Z,78.43
2023-02-24T22:52:38.696Z,87.67
2023-02-24T22:55:08.351Z,92.70
2023-02-24T22:57:37.425Z,119.07
2023-02-24T23:03:12.807Z,88.80
2023-02-24T23:05:42.283Z,87.20
2023-02-24T23:08:12.073Z,84.07
2023-02-24T23:10:41.229Z,78.13
2023-02-24T23:13:10.413Z,85.57
2023-02-24T23:15:41.060Z,99.10
2023-02-24T23:18:11.037Z,106.93
2023-02-24T23:20:40.152Z,119.97
2023-02-24T23:23:10.806Z,113.40
2023-02-24T23:25:40.221Z,111.07
2023-02-24T23:28:09.361Z,105.70
2023-02-24T23:30:42.727Z,98.00
2023-02-24T23:33:13.612Z,92.63
2023-02-24T23:35:42.586Z,87.20
2023-02-24T23:38:12.312Z,83.57
2023-02-24T23:40:49.529Z,81.83
2023-02-24T23:43:19.059Z,84.07
2023-02-24T23:45:48.179Z,83.63
2023-02-24T23:48:36.179Z,78.73
2023-02-24T23:51:07.308Z,81.70
2023-02-24T23:53:39.431Z,80.77
2023-02-24T23:56:10.103Z,81.90
2023-02-24T23:58:39.429Z,79.47
